Alturas Rancheria, California
Current Conditions -  °F | °C
As of 6:55 AM on Saturday 20 Dec 2014 (Local Time) from KAAT Reporting Station
Overcast Overcast  
Wind Chill: 34°   Ceiling: 2600
Heat Index: 38°   Visibility: 10mi
Dew Point: 35°   Wind: 5mph
Humidity: 89%   Direction: 150°SSE
Pressure: 30.03"   Gusts: NA
Location:  41.4836°N, 120.55°W
Report Text: KAAT 201455Z AUTO 15004KT 10SM BKN026 OVC032 03/02 A3003 RMK AO2 RAE28 SLP175 P0001 60003 T00330017 55002
Loading
Personal Weather Stations






























Interactive Weather Map New forecast layout! Learn more

10-Day Weather Forecast

Advertisements
Track Severe Weather on mobile